Terminal Aerodrome Forecast
Issued by NWS Sioux Falls, SD

Home | Current Version | Previous Version | Graphics & Text | Print | Product List | Glossary Off
Versions: 1 2 3 4 5 6 7 8 9 10 11 12 13

000
FTUS43 KFSD 192322
TAFSUX
TAF
KSUX 192322Z 2000/2024 32009KT P6SM FEW080
     FM200200 32004KT P6SM SKC
     FM201300 26007KT P6SM FEW090
     FM201700 31010KT P6SM SCT080
     FM202100 35008KT P6SM FEW100=

USA.gov is the U.S. government's official web portal to all federal, state and local government web resources and services.